• Join FlightAware (Why Join?)
  • Login
  • US Flag 
11:35AM EST


 

Airport Tracker/Info


-or-


 

Live Flight TrackerFlight Track Log ✈ EZY135 ✈ 22-Apr-2013 ✈ EGCC / MAN - EGAA / BFS

Flight Track Log - Related Links

Times and Time Zones

All times are in EDT time to prevent confusion due to time zone crossing. See the EZY135 flight status page for this flight to view local times or setup timezone preferences in your user account.

Time Position Orientation Groundspeed Altitude Reporting Facility
EDT Latitude Longitude Course Direction KTS MPH feet Rate Location/Type
12:00PM 53.5711 -2.8896 301° West  Level Estimated
12:01PM 53.5981 -2.9669 300° West  Level Estimated
12:02PM 53.6250 -3.0442 300° West  Level Estimated
12:03PM 53.6518 -3.1217 300° West  Level Estimated
12:04PM 53.6786 -3.1993 300° West  Level Estimated
12:05PM 53.7054 -3.2769 300° West  Level Estimated
12:06PM 53.7321 -3.3547 300° West  Level Estimated
12:07PM 53.7587 -3.4326 300° West  Level Estimated
12:08PM 53.7853 -3.5106 300° West  Level Estimated
12:09PM 53.8119 -3.5886 300° West  Level Estimated
12:10PM 53.8384 -3.6668 300° West  Level Estimated
12:11PM 53.8648 -3.7450 300° West  Level Estimated
12:12PM 53.8912 -3.8234 300° West  Level Estimated
12:13PM 53.9176 -3.9019 300° West  Level Estimated
12:14PM 53.9462 -3.9873 300° West  Level Estimated
12:15PM 53.9747 -4.0728 300° West  Level Estimated
12:16PM 54.0032 -4.1584 300° West  Level Estimated
12:17PM 54.0316 -4.2441 299° West  Level Estimated
12:18PM 54.0599 -4.3300 299° West  Level Estimated
12:19PM 54.0882 -4.4160 299° West  Level Estimated
12:20PM 54.1164 -4.5021 299° West  Level Estimated
12:21PM 54.1445 -4.5883 299° West  Level Estimated
12:22PM 54.1726 -4.6746 299° West  Level Estimated
12:23PM 54.2019 -4.7650 299° West  Level Estimated
12:24PM 54.2311 -4.8555 299° West  Level Estimated
12:25PM 54.2603 -4.9461 299° West  Level Estimated
12:26PM 54.2894 -5.0369 299° West  Level Estimated
12:27PM 54.3184 -5.1278 299° West  Level Estimated
12:28PM 54.3474 -5.2188 299° West  Level Estimated
12:29PM 54.3763 -5.3100 299° West  Level Estimated
12:30PM 54.4051 -5.4013 299° West  Level Estimated
12:31PM 54.4338 -5.4927 298° West  Level Estimated
12:32PM 54.4625 -5.5842 298° West  Level Estimated
12:33PM 54.4911 -5.6759 298° West  Level Estimated
12:34PM 54.5197 -5.7677 298° West  Level Estimated
12:35PM 54.5482 -5.8596 298° West  Level Estimated
12:36PM 54.5766 -5.9516 298° West  Level Estimated
12:37PM 54.6049 -6.0438 298° West  Level Estimated
12:38PM 54.6332 -6.1361 298° West  Level Estimated
12:39PM 54.6575 -6.2158 298° West  Level Estimated
12:40PM 54.6575 -6.2158 270° West  Level Estimated
12:41PM 54.6575 -6.2158 270° West  Level Estimated
12:42PM 54.6575 -6.2158 270° West  Level Estimated
12:43PM 54.6575 -6.2158 270° West  Level Estimated
12:44PM 54.6575 -6.2158 270° West  Level Estimated
12:45PM 54.6575 -6.2158 270° West  Level Estimated
12:46PM 54.6575 -6.2158 270° West  Level Estimated
12:47PM 54.6575 -6.2158 270° West  Level Estimated
12:48PM 54.6575 -6.2158 270° West  Level Estimated
12:49PM 54.6575 -6.2158 270° West  Level Estimated
12:50PM 54.6575 -6.2158 270° West  Level Estimated
12:51PM 54.6575 -6.2158 270° West  Level Estimated
12:52PM 54.6575 -6.2158 270° West  Level Estimated